^^
WesterhopeWX Station Historical Data
 
Daily Summary for April 23, 2019 Units:  Metric    English   Both
Daily Weekly Monthly Yearly Custom
  Current: High: Low: Average:
Temperature: 11.6 °C 12.2 °C 6.3 °C 8.1 °C
Dew Point: 6.9 °C 7.8 °C 5.1 °C 6.2 °C
Humidity: 73% 93% 72% 88%
Wind Speed: 1.4km/h 9.7km/h 0.0km/h 1.1km/h
Wind Gust: 9.7km/h 16.1km/h - -
WindESE - - East
Pressure: 1000.6 hPa 1002.9 hPa 1000.6 hPa -
Precipitation: 0.0 mm      
Historical Graphs
 
 
Tabular Data for April 23, 2019
Time Temperature Dew Point Pressure Wind Wind Speed Wind Gust Humidity Rainfall Rate (Hourly) solar
00:04 7.2 °C 5.3 °C 1002.9 hPa ENE 1.4 km/h 3.2 km/h 88% 0.0 mm 0.00 W/m2
00:09 7.2 °C 5.3 °C 1002.9 hPa Calm   4.8 km/h 88% 0.0 mm 0.00 W/m2
00:14 7.1 °C 5.4 °C 1002.9 hPa ENE 1.4 km/h 3.2 km/h 89% 0.0 mm 0.00 W/m2
00:19 7.1 °C 5.4 °C 1002.9 hPa ENE 1.4 km/h 1.6 km/h 89% 0.0 mm 0.00 W/m2
00:24 7.1 °C 5.4 °C 1002.9 hPa ENE 1.4 km/h 3.2 km/h 89% 0.0 mm 0.00 W/m2
00:29 7.1 °C 5.4 °C 1002.9 hPa ENE 1.4 km/h 3.2 km/h 89% 0.0 mm 0.00 W/m2
00:34 7.0 °C 5.3 °C 1002.9 hPa ENE 1.4 km/h 1.6 km/h 89% 0.0 mm 0.00 W/m2
00:39 6.9 °C 5.2 °C 1002.6 hPa Calm   3.2 km/h 89% 0.0 mm 0.00 W/m2
00:44 6.8 °C 5.1 °C 1002.9 hPa Calm   1.6 km/h 89% 0.0 mm 0.00 W/m2
00:49 6.7 °C 5.2 °C 1002.6 hPa Calm   1.6 km/h 90% 0.0 mm 0.00 W/m2
00:54 6.8 °C 5.3 °C 1002.6 hPa Calm   1.6 km/h 90% 0.0 mm 0.00 W/m2
00:59 6.7 °C 5.2 °C 1002.6 hPa Calm   1.6 km/h 90% 0.0 mm 0.00 W/m2
01:04 6.7 °C 5.2 °C 1002.6 hPa Calm     90% 0.0 mm 0.00 W/m2
01:09 6.7 °C 5.2 °C 1002.6 hPa Calm     90% 0.0 mm 0.00 W/m2
01:14 6.7 °C 5.2 °C 1002.6 hPa Calm     90% 0.0 mm 0.00 W/m2
01:19 6.8 °C 5.3 °C 1002.6 hPa Calm     90% 0.0 mm 0.00 W/m2
01:24 6.9 °C 5.4 °C 1002.3 hPa Calm   1.6 km/h 90% 0.0 mm 0.00 W/m2
01:29 6.9 °C 5.4 °C 1002.3 hPa NNW 1.4 km/h 3.2 km/h 90% 0.0 mm 0.00 W/m2
01:34 7.1 °C 5.7 °C 1002.3 hPa NE 1.4 km/h 4.8 km/h 91% 0.0 mm 0.00 W/m2
01:39 7.2 °C 5.8 °C 1002.3 hPa East 3.2 km/h 4.8 km/h 91% 0.0 mm 0.00 W/m2
01:44 7.3 °C 5.9 °C 1002.3 hPa Calm   1.6 km/h 91% 0.0 mm 0.00 W/m2
01:49 7.4 °C 6.0 °C 1002.3 hPa North 1.4 km/h 4.8 km/h 91% 0.0 mm 0.00 W/m2
01:54 7.4 °C 6.0 °C 1002.3 hPa Calm   1.6 km/h 91% 0.0 mm 0.00 W/m2
01:59 7.3 °C 5.8 °C 1002.3 hPa Calm   3.2 km/h 90% 0.0 mm 0.00 W/m2
02:04 7.2 °C 5.8 °C 1002.3 hPa North 1.4 km/h 1.6 km/h 91% 0.0 mm 0.00 W/m2
02:09 7.1 °C 5.7 °C 1002.3 hPa Calm   1.6 km/h 91% 0.0 mm 0.00 W/m2
02:14 7.0 °C 5.6 °C 1002.3 hPa Calm     91% 0.0 mm 0.00 W/m2
02:19 7.0 °C 5.6 °C 1001.9 hPa Calm     91% 0.0 mm 0.00 W/m2
02:24 7.0 °C 5.6 °C 1001.9 hPa Calm     91% 0.0 mm 0.00 W/m2
02:29 7.0 °C 5.6 °C 1001.9 hPa Calm     91% 0.0 mm 0.00 W/m2
02:34 7.1 °C 5.7 °C 1001.9 hPa Calm     91% 0.0 mm 0.00 W/m2
02:39 7.1 °C 5.7 °C 1001.9 hPa Calm     91% 0.0 mm 0.00 W/m2
02:44 7.1 °C 5.7 °C 1001.9 hPa Calm     91% 0.0 mm 0.00 W/m2
02:49 7.1 °C 5.7 °C 1001.9 hPa Calm     91% 0.0 mm 0.00 W/m2
02:54 7.1 °C 5.7 °C 1001.9 hPa Calm     91% 0.0 mm 0.00 W/m2
02:59 7.2 °C 5.8 °C 1001.9 hPa Calm     91% 0.0 mm 0.00 W/m2
03:04 7.2 °C 5.8 °C 1001.9 hPa Calm     91% 0.0 mm 0.00 W/m2
03:09 7.1 °C 5.7 °C 1001.6 hPa Calm     91% 0.0 mm 0.00 W/m2
03:14 7.2 °C 5.8 °C 1001.6 hPa Calm     91% 0.0 mm 0.00 W/m2
03:19 7.1 °C 5.7 °C 1001.6 hPa Calm     91% 0.0 mm 0.00 W/m2
03:24 7.2 °C 5.8 °C 1001.6 hPa Calm     91% 0.0 mm 0.00 W/m2
03:29 7.1 °C 5.9 °C 1001.6 hPa Calm     92% 0.0 mm 0.00 W/m2
03:34 7.1 °C 5.9 °C 1001.6 hPa Calm     92% 0.0 mm 0.00 W/m2
03:39 7.1 °C 5.9 °C 1001.6 hPa Calm     92% 0.0 mm 0.00 W/m2
03:44 7.1 °C 5.9 °C 1001.6 hPa Calm     92% 0.0 mm 0.00 W/m2
03:49 7.1 °C 5.9 °C 1001.6 hPa Calm     92% 0.0 mm 0.00 W/m2
03:54 7.1 °C 5.9 °C 1001.2 hPa Calm     92% 0.0 mm 0.00 W/m2
03:59 7.1 °C 5.9 °C 1001.6 hPa Calm     92% 0.0 mm 0.00 W/m2
04:04 7.0 °C 5.8 °C 1001.2 hPa Calm     92% 0.0 mm 0.00 W/m2
04:09 7.1 °C 5.9 °C 1001.2 hPa Calm     92% 0.0 mm 0.00 W/m2
04:14 7.0 °C 5.8 °C 1001.2 hPa Calm     92% 0.0 mm 0.00 W/m2
04:19 7.0 °C 5.8 °C 1001.2 hPa Calm     92% 0.0 mm 0.00 W/m2
04:24 6.9 °C 5.7 °C 1001.2 hPa Calm     92% 0.0 mm 0.00 W/m2
04:29 6.9 °C 5.7 °C 1001.2 hPa Calm     92% 0.0 mm 0.00 W/m2
04:34 6.9 °C 5.7 °C 1001.2 hPa Calm     92% 0.0 mm 0.00 W/m2
04:39 6.9 °C 5.7 °C 1001.2 hPa Calm     92% 0.0 mm 0.00 W/m2
04:44 6.8 °C 5.6 °C 1001.2 hPa Calm     92% 0.0 mm 0.00 W/m2
04:49 6.8 °C 5.6 °C 1001.2 hPa Calm     92% 0.0 mm 0.00 W/m2
04:54 6.7 °C 5.5 °C 1000.9 hPa Calm     92% 0.0 mm 0.00 W/m2
04:59 6.7 °C 5.5 °C 1000.9 hPa Calm     92% 0.0 mm 0.00 W/m2
05:04 6.7 °C 5.5 °C 1000.9 hPa Calm     92% 0.0 mm 0.00 W/m2
05:09 6.7 °C 5.5 °C 1000.9 hPa Calm     92% 0.0 mm 0.00 W/m2
05:14 6.7 °C 5.5 °C 1000.9 hPa Calm     92% 0.0 mm 0.00 W/m2
05:19 6.7 °C 5.5 °C 1000.9 hPa Calm     92% 0.0 mm 0.00 W/m2
05:24 6.7 °C 5.5 °C 1000.9 hPa Calm     92% 0.0 mm 0.00 W/m2
05:29 6.6 °C 5.4 °C 1000.9 hPa Calm     92% 0.0 mm 0.00 W/m2
05:34 6.5 °C 5.3 °C 1000.9 hPa Calm     92% 0.0 mm 0.00 W/m2
05:39 6.5 °C 5.3 °C 1000.9 hPa Calm     92% 0.0 mm 0.00 W/m2
05:44 6.5 °C 5.3 °C 1000.9 hPa Calm     92% 0.0 mm 0.00 W/m2
05:49 6.4 °C 5.2 °C 1000.9 hPa Calm     92% 0.0 mm 5.00 W/m2
05:54 6.4 °C 5.2 °C 1000.9 hPa Calm     92% 0.0 mm 7.00 W/m2
05:59 6.4 °C 5.2 °C 1000.9 hPa Calm     92% 0.0 mm 11.00 W/m2
06:04 6.4 °C 5.2 °C 1000.9 hPa Calm     92% 0.0 mm 12.00 W/m2
06:09 6.4 °C 5.2 °C 1000.9 hPa Calm     92% 0.0 mm 14.00 W/m2
06:14 6.4 °C 5.2 °C 1000.9 hPa Calm     92% 0.0 mm 19.00 W/m2
06:19 6.4 °C 5.2 °C 1000.9 hPa Calm     92% 0.0 mm 23.00 W/m2
06:24 6.3 °C 5.1 °C 1000.9 hPa Calm     92% 0.0 mm 26.00 W/m2
06:29 6.4 °C 5.2 °C 1000.9 hPa Calm     92% 0.0 mm 30.00 W/m2
06:34 6.4 °C 5.4 °C 1000.9 hPa Calm     93% 0.0 mm 33.00 W/m2
06:39 6.4 °C 5.2 °C 1000.9 hPa Calm     92% 0.0 mm 39.00 W/m2
06:44 6.4 °C 5.4 °C 1000.9 hPa Calm     93% 0.0 mm 42.00 W/m2
06:49 6.5 °C 5.4 °C 1000.9 hPa Calm     93% 0.0 mm 46.00 W/m2
06:54 6.6 °C 5.5 °C 1000.9 hPa Calm     93% 0.0 mm 49.00 W/m2
06:59 6.7 °C 5.6 °C 1000.9 hPa Calm     93% 0.0 mm 54.00 W/m2
07:04 6.8 °C 5.7 °C 1000.9 hPa Calm     93% 0.0 mm 58.00 W/m2
07:09 6.9 °C 5.8 °C 1001.2 hPa Calm     93% 0.0 mm 62.00 W/m2
07:14 7.0 °C 5.9 °C 1001.2 hPa Calm     93% 0.0 mm 79.00 W/m2
07:19 7.1 °C 6.0 °C 1001.2 hPa Calm     93% 0.0 mm 93.00 W/m2
07:24 7.3 °C 6.2 °C 1000.9 hPa Calm     93% 0.0 mm 95.00 W/m2
07:29 7.6 °C 6.5 °C 1000.9 hPa Calm     93% 0.0 mm 102.00 W/m2
07:34 7.8 °C 6.7 °C 1000.9 hPa Calm     93% 0.0 mm 114.00 W/m2
07:39 8.2 °C 7.1 °C 1000.9 hPa Calm     93% 0.0 mm 134.00 W/m2
07:44 8.3 °C 7.2 °C 1000.9 hPa Calm     93% 0.0 mm 146.00 W/m2
07:49 8.4 °C 7.3 °C 1000.9 hPa Calm     93% 0.0 mm 160.00 W/m2
07:54 8.8 °C 7.7 °C 1000.9 hPa Calm     93% 0.0 mm 171.00 W/m2
07:59 8.9 °C 7.8 °C 1000.9 hPa Calm     93% 0.0 mm 121.00 W/m2
08:04 9.0 °C 7.8 °C 1000.9 hPa ENE 3.2 km/h 4.8 km/h 92% 0.0 mm 121.00 W/m2
08:09 8.9 °C 7.7 °C 1000.9 hPa East 3.2 km/h 4.8 km/h 92% 0.0 mm 93.00 W/m2
08:14 9.0 °C 7.6 °C 1000.9 hPa East 1.4 km/h 3.2 km/h 91% 0.0 mm 111.00 W/m2
08:19 9.1 °C 7.7 °C 1000.6 hPa Calm   6.4 km/h 91% 0.0 mm 139.00 W/m2
08:24 9.2 °C 7.6 °C 1000.9 hPa Calm   6.4 km/h 90% 0.0 mm 118.00 W/m2
08:29 9.3 °C 7.6 °C 1000.9 hPa ENE 3.2 km/h 4.8 km/h 89% 0.0 mm 137.00 W/m2
08:34 9.5 °C 7.8 °C 1000.9 hPa ENE 1.4 km/h 4.8 km/h 89% 0.0 mm 163.00 W/m2
08:39 9.7 °C 7.6 °C 1000.9 hPa East 1.4 km/h 6.4 km/h 87% 0.0 mm 160.00 W/m2
08:44 9.9 °C 7.7 °C 1000.9 hPa East 6.4 km/h 9.7 km/h 86% 0.0 mm 178.00 W/m2
08:49 10.0 °C 7.6 °C 1000.9 hPa East 3.2 km/h 6.4 km/h 85% 0.0 mm 197.00 W/m2
08:54 10.2 °C 7.6 °C 1000.9 hPa East 4.7 km/h 6.4 km/h 84% 0.0 mm 200.00 W/m2
08:59 10.3 °C 7.5 °C 1000.9 hPa ENE 3.2 km/h 4.8 km/h 83% 0.0 mm 197.00 W/m2
09:04 10.4 °C 7.5 °C 1000.9 hPa ESE 9.7 km/h 14.5 km/h 82% 0.0 mm 209.00 W/m2
09:09 10.5 °C 7.6 °C 1000.9 hPa Calm   6.4 km/h 82% 0.0 mm 214.00 W/m2
09:14 10.6 °C 7.5 °C 1000.9 hPa East 3.2 km/h 9.7 km/h 81% 0.0 mm 221.00 W/m2
09:19 10.7 °C 7.4 °C 1000.9 hPa ESE 4.7 km/h 16.1 km/h 80% 0.0 mm 227.00 W/m2
09:24 10.7 °C 7.4 °C 1000.9 hPa SE 4.7 km/h 9.7 km/h 80% 0.0 mm 223.00 W/m2
09:29 10.7 °C 7.4 °C 1000.9 hPa East 3.2 km/h 11.3 km/h 80% 0.0 mm 221.00 W/m2
09:34 10.8 °C 7.5 °C 1000.9 hPa East 1.4 km/h 6.4 km/h 80% 0.0 mm 221.00 W/m2
09:39 10.9 °C 7.4 °C 1000.9 hPa ESE 1.4 km/h 6.4 km/h 79% 0.0 mm 229.00 W/m2
09:44 10.9 °C 7.4 °C 1000.6 hPa ESE 3.2 km/h 4.8 km/h 79% 0.0 mm 239.00 W/m2
09:49 11.0 °C 7.3 °C 1000.9 hPa Calm   12.9 km/h 78% 0.0 mm 258.00 W/m2
09:54 11.2 °C 7.5 °C 1000.6 hPa ENE 3.2 km/h 4.8 km/h 78% 0.0 mm 279.00 W/m2
09:59 11.3 °C 7.4 °C 1000.6 hPa East 6.4 km/h 16.1 km/h 77% 0.0 mm 281.00 W/m2
10:04 11.3 °C 7.4 °C 1000.9 hPa NE 3.2 km/h 6.4 km/h 77% 0.0 mm 466.00 W/m2
10:09 11.6 °C 7.3 °C 1000.6 hPa ENE 4.7 km/h 11.3 km/h 75% 0.0 mm 272.00 W/m2
10:14 12.1 °C 7.8 °C 1000.6 hPa East 1.4 km/h 4.8 km/h 75% 0.0 mm 246.00 W/m2
10:19 12.2 °C 7.3 °C 1000.6 hPa Calm   11.3 km/h 72% 0.0 mm 213.00 W/m2
10:24 12.1 °C 7.4 °C 1000.9 hPa SE 3.2 km/h 9.7 km/h 73% 0.0 mm 353.00 W/m2
10:29 12.0 °C 7.3 °C 1000.6 hPa ENE 4.7 km/h 8.0 km/h 73% 0.0 mm 272.00 W/m2
10:34 11.9 °C 7.2 °C 1000.6 hPa East 1.4 km/h 9.7 km/h 73% 0.0 mm 274.00 W/m2
10:39 11.9 °C 7.2 °C 1000.6 hPa East 6.4 km/h 11.3 km/h 73% 0.0 mm 304.00 W/m2
10:44 12.1 °C 7.4 °C 1000.6 hPa NW 3.2 km/h 9.7 km/h 73% 0.0 mm 279.00 W/m2
10:49 12.0 °C 7.3 °C 1000.6 hPa Calm   6.4 km/h 73% 0.0 mm 278.00 W/m2
10:54 11.9 °C 7.0 °C 1000.6 hPa ESE 4.7 km/h 6.4 km/h 72% 0.0 mm 283.00 W/m2
10:59 11.7 °C 7.0 °C 1000.6 hPa East 6.4 km/h 8.0 km/h 73% 0.0 mm 281.00 W/m2
11:04 11.6 °C 6.9 °C 1000.6 hPa SE 6.4 km/h 9.7 km/h 73% 0.0 mm 279.00 W/m2
11:09 11.7 °C 7.0 °C 1000.6 hPa NE 4.7 km/h 14.5 km/h 73% 0.0 mm 292.00 W/m2
11:14 11.6 °C 6.9 °C 1000.6 hPa ESE 7.9 km/h 14.5 km/h 73% 0.0 mm 299.00 W/m2
11:19 11.6 °C 6.9 °C 1000.6 hPa ESE 3.2 km/h 9.7 km/h 73% 0.0 mm 297.00 W/m2
11:24 11.6 °C 6.9 °C 1000.6 hPa ESE 1.4 km/h 9.7 km/h 73% 0.0 mm 295.00 W/m2
Westerhope, Newcastle upon Tyne, UK
Compliments of Weather Underground - 4 mb